Gratiot, Ohio
Current Conditions -  °F | °C
As of 2:54 PM on Wednesday 26 Nov 2014 (Local Time) from KVTA Reporting Station
Overcast Overcast  
Wind Chill: 39°   Ceiling: 3500
Heat Index: 39°   Visibility: 10mi
Dew Point: 27°   Wind: 3mph
Humidity: 62%   Direction: 320°NW
Pressure: 30.01"   Gusts: NA
Location:  39.95°N, 82.22°W
Report Text: KVTA 261954Z AUTO 32003KT 10SM OVC035 04/M03 A3001 RMK AO2 SLP169 T00391028
Loading
Personal Weather Stations






























Interactive Weather Map New forecast layout! Learn more

10-Day Weather Forecast

Advertisements
Track Severe Weather on mobile